AZU9215 SBKP-SBGO
Flight info
| Callsign | AZU9215 |
|---|---|
| Flight time | 1h 6m |
| Altitude | 37000 |
| Route | ISMOB DCT CORVO |
| Aircraft | A20N/M-SDE2E3FGHIRWXY/LB1 |
Departure
| Time | 2026-05-01 11:48 |
|---|---|
| Airport | Viracopos International Airport (SBKP) |
Arrival
| Time | 2026-05-01 12:54 |
|---|---|
| Airport | Santa Genoveva International Airport (SBGO) |
| Time | Latitude | Longitude | Altitude | Speed | Heading |
|---|---|---|---|---|---|
| 2026-05-01 11:30 | -23.00386 | -47.14898 | 2176 ft | 0 kts | 216° |
| 2026-05-01 11:41 | -23.00386 | -47.14897 | 2176 ft | 1 kts | 216° |
| 2026-05-01 11:41 | -23.00374 | -47.14888 | 2176 ft | 2 kts | 216° |
| 2026-05-01 11:42 | -23.00362 | -47.14878 | 2176 ft | 2 kts | 216° |
| 2026-05-01 11:42 | -23.00350 | -47.14870 | 2176 ft | 1 kts | 216° |
| 2026-05-01 11:42 | -23.00344 | -47.14862 | 2176 ft | 1 kts | 271° |
| 2026-05-01 11:42 | -23.00346 | -47.14855 | 2176 ft | 0 kts | 310° |
| 2026-05-01 11:43 | -23.00351 | -47.14849 | 2176 ft | 0 kts | 308° |
| 2026-05-01 11:45 | -23.00341 | -47.14862 | 2176 ft | 4 kts | 308° |
| 2026-05-01 11:46 | -23.00312 | -47.14903 | 2176 ft | 9 kts | 308° |
| 2026-05-01 11:46 | -23.00263 | -47.14972 | 2176 ft | 13 kts | 306° |
| 2026-05-01 11:46 | -23.00183 | -47.15013 | 2176 ft | 16 kts | 36° |
| 2026-05-01 11:46 | -23.00087 | -47.14927 | 2176 ft | 19 kts | 37° |
| 2026-05-01 11:47 | -22.99987 | -47.14820 | 2176 ft | 20 kts | 47° |
| 2026-05-01 11:47 | -22.99889 | -47.14714 | 2176 ft | 19 kts | 64° |
| 2026-05-01 11:47 | -22.99927 | -47.14585 | 2176 ft | 21 kts | 129° |
| 2026-05-01 11:47 | -23.00159 | -47.14259 | 2177 ft | 90 kts | 127° |
| 2026-05-01 11:48 | -23.00678 | -47.13540 | 2178 ft | 151 kts | 127° |
| 2026-05-01 11:48 | -23.01375 | -47.12528 | 2468 ft | 175 kts | 126° |
| 2026-05-01 11:48 | -23.02016 | -47.11411 | 3132 ft | 179 kts | 104° |
| 2026-05-01 11:48 | -23.01986 | -47.10069 | 3838 ft | 182 kts | 75° |
| 2026-05-01 11:49 | -23.01631 | -47.08713 | 4387 ft | 197 kts | 76° |
| 2026-05-01 11:49 | -23.01350 | -47.07211 | 4893 ft | 214 kts | 79° |
| 2026-05-01 11:49 | -23.01095 | -47.05550 | 5346 ft | 234 kts | 79° |
| 2026-05-01 11:49 | -23.00826 | -47.03737 | 5806 ft | 254 kts | 78° |
| 2026-05-01 11:50 | -23.00215 | -47.01891 | 6333 ft | 268 kts | 54° |
| 2026-05-01 11:50 | -22.98912 | -47.00451 | 7094 ft | 272 kts | 36° |
| 2026-05-01 11:50 | -22.97401 | -46.99235 | 7646 ft | 275 kts | 35° |
| 2026-05-01 11:50 | -22.95849 | -46.98001 | 7940 ft | 276 kts | 36° |
| 2026-05-01 11:51 | -22.94305 | -46.96761 | 7980 ft | 276 kts | 36° |
| 2026-05-01 11:51 | -22.92767 | -46.95515 | 7986 ft | 276 kts | 36° |
| 2026-05-01 11:51 | -22.91085 | -46.94527 | 7971 ft | 275 kts | 13° |
| 2026-05-01 11:51 | -22.89173 | -46.94493 | 8020 ft | 279 kts | 346° |
| 2026-05-01 11:52 | -22.87405 | -46.95369 | 8549 ft | 287 kts | 330° |
| 2026-05-01 11:52 | -22.85693 | -46.96460 | 9500 ft | 284 kts | 330° |
| 2026-05-01 11:52 | -22.83983 | -46.97522 | 10298 ft | 285 kts | 330° |
| 2026-05-01 11:52 | -22.82245 | -46.98594 | 10852 ft | 295 kts | 330° |
| 2026-05-01 11:53 | -22.80412 | -46.99723 | 11174 ft | 313 kts | 330° |
| 2026-05-01 11:53 | -22.78451 | -47.00931 | 11466 ft | 330 kts | 330° |
| 2026-05-01 11:53 | -22.76387 | -47.02181 | 11760 ft | 347 kts | 332° |
| 2026-05-01 11:53 | -22.74214 | -47.03386 | 12254 ft | 355 kts | 332° |
| 2026-05-01 11:54 | -22.72013 | -47.04593 | 12864 ft | 358 kts | 332° |
| 2026-05-01 11:54 | -22.69790 | -47.05812 | 13433 ft | 361 kts | 332° |
| 2026-05-01 11:54 | -22.67543 | -47.07045 | 14007 ft | 364 kts | 332° |
| 2026-05-01 11:54 | -22.65253 | -47.08301 | 14601 ft | 367 kts | 332° |
| 2026-05-01 11:55 | -22.62996 | -47.09536 | 15174 ft | 368 kts | 332° |
| 2026-05-01 11:55 | -22.60700 | -47.10793 | 15758 ft | 370 kts | 332° |
| 2026-05-01 11:55 | -22.58397 | -47.12054 | 16322 ft | 372 kts | 332° |
| 2026-05-01 11:55 | -22.56078 | -47.13324 | 16878 ft | 373 kts | 331° |
| 2026-05-01 11:56 | -22.53767 | -47.14590 | 17410 ft | 374 kts | 331° |
| 2026-05-01 11:56 | -22.51438 | -47.15867 | 17923 ft | 377 kts | 331° |
| 2026-05-01 11:56 | -22.49001 | -47.16948 | 18345 ft | 383 kts | 346° |
| 2026-05-01 11:56 | -22.46335 | -47.17223 | 18800 ft | 389 kts | 356° |
| 2026-05-01 11:57 | -22.43623 | -47.17250 | 19261 ft | 392 kts | 357° |
| 2026-05-01 11:57 | -22.40857 | -47.17268 | 19707 ft | 396 kts | 357° |
| 2026-05-01 11:57 | -22.38085 | -47.17318 | 20154 ft | 399 kts | 356° |
| 2026-05-01 11:57 | -22.35305 | -47.17394 | 20599 ft | 402 kts | 356° |
| 2026-05-01 11:58 | -22.32500 | -47.17489 | 21057 ft | 404 kts | 356° |
| 2026-05-01 11:58 | -22.29671 | -47.17596 | 21502 ft | 407 kts | 355° |
| 2026-05-01 11:58 | -22.23959 | -47.17830 | 22398 ft | 413 kts | 355° |
| 2026-05-01 11:59 | -22.21079 | -47.17951 | 22852 ft | 415 kts | 355° |
| 2026-05-01 11:59 | -22.18191 | -47.18074 | 23295 ft | 418 kts | 355° |
| 2026-05-01 11:59 | -22.15272 | -47.18200 | 23720 ft | 421 kts | 355° |
| 2026-05-01 12:00 | -22.09380 | -47.18454 | 24567 ft | 427 kts | 355° |
| 2026-05-01 12:00 | -22.06367 | -47.18583 | 24991 ft | 430 kts | 355° |
| 2026-05-01 12:00 | -22.00374 | -47.18842 | 25815 ft | 435 kts | 355° |
| 2026-05-01 12:01 | -21.97332 | -47.18973 | 26214 ft | 438 kts | 355° |
| 2026-05-01 12:01 | -21.94274 | -47.19105 | 26615 ft | 440 kts | 355° |
| 2026-05-01 12:01 | -21.91172 | -47.19240 | 27023 ft | 442 kts | 355° |
| 2026-05-01 12:01 | -21.88090 | -47.19374 | 27417 ft | 444 kts | 355° |
| 2026-05-01 12:02 | -21.85008 | -47.19506 | 27919 ft | 443 kts | 355° |
| 2026-05-01 12:02 | -21.81935 | -47.19693 | 28457 ft | 440 kts | 352° |
| 2026-05-01 12:02 | -21.78903 | -47.20076 | 28945 ft | 437 kts | 348° |
| 2026-05-01 12:02 | -21.75914 | -47.20687 | 29386 ft | 436 kts | 344° |
| 2026-05-01 12:03 | -21.72990 | -47.21513 | 29834 ft | 434 kts | 341° |
| 2026-05-01 12:03 | -21.70092 | -47.22408 | 30295 ft | 432 kts | 341° |
| 2026-05-01 12:03 | -21.67208 | -47.23311 | 30751 ft | 431 kts | 341° |
| 2026-05-01 12:03 | -21.64340 | -47.24209 | 31174 ft | 429 kts | 341° |
| 2026-05-01 12:04 | -21.61463 | -47.25109 | 31577 ft | 428 kts | 341° |
| 2026-05-01 12:04 | -21.58610 | -47.26001 | 31964 ft | 428 kts | 341° |
| 2026-05-01 12:04 | -21.55757 | -47.26891 | 32338 ft | 427 kts | 340° |
| 2026-05-01 12:04 | -21.52894 | -47.27784 | 32717 ft | 426 kts | 341° |
| 2026-05-01 12:05 | -21.50085 | -47.28660 | 33088 ft | 425 kts | 340° |
| 2026-05-01 12:05 | -21.44383 | -47.30436 | 33858 ft | 423 kts | 340° |
| 2026-05-01 12:05 | -21.41560 | -47.31313 | 34235 ft | 422 kts | 340° |
| 2026-05-01 12:06 | -21.38752 | -47.32186 | 34595 ft | 421 kts | 340° |
| 2026-05-01 12:06 | -21.35953 | -47.33056 | 34944 ft | 420 kts | 340° |
| 2026-05-01 12:06 | -21.33155 | -47.33926 | 35279 ft | 419 kts | 340° |
| 2026-05-01 12:06 | -21.30358 | -47.34795 | 35594 ft | 418 kts | 340° |
| 2026-05-01 12:07 | -21.27568 | -47.35661 | 35856 ft | 418 kts | 340° |
| 2026-05-01 12:07 | -21.24737 | -47.36540 | 36079 ft | 419 kts | 340° |
| 2026-05-01 12:07 | -21.21923 | -47.37413 | 36265 ft | 421 kts | 340° |
| 2026-05-01 12:07 | -21.19141 | -47.38275 | 36445 ft | 422 kts | 340° |
| 2026-05-01 12:08 | -21.16282 | -47.39162 | 36636 ft | 423 kts | 340° |
| 2026-05-01 12:08 | -21.13459 | -47.40036 | 36823 ft | 424 kts | 340° |
| 2026-05-01 12:08 | -21.10627 | -47.40913 | 37003 ft | 424 kts | 340° |
| 2026-05-01 12:08 | -21.07788 | -47.41791 | 37164 ft | 426 kts | 340° |
| 2026-05-01 12:09 | -21.02062 | -47.43563 | 37203 ft | 427 kts | 340° |
| 2026-05-01 12:09 | -20.96356 | -47.45327 | 37210 ft | 427 kts | 340° |
| 2026-05-01 12:10 | -20.87797 | -47.47969 | 37208 ft | 427 kts | 340° |
| 2026-05-01 12:11 | -20.79213 | -47.50617 | 37197 ft | 428 kts | 341° |
| 2026-05-01 12:11 | -20.73460 | -47.52390 | 37198 ft | 428 kts | 341° |
| 2026-05-01 12:12 | -20.67734 | -47.54153 | 37199 ft | 428 kts | 341° |
| 2026-05-01 12:12 | -20.62023 | -47.55910 | 37202 ft | 427 kts | 341° |
| 2026-05-01 12:13 | -20.56302 | -47.57668 | 37199 ft | 427 kts | 341° |
| 2026-05-01 12:13 | -20.50596 | -47.59420 | 37205 ft | 427 kts | 341° |
| 2026-05-01 12:14 | -20.44875 | -47.61176 | 37205 ft | 427 kts | 341° |
| 2026-05-01 12:14 | -20.39145 | -47.62934 | 37204 ft | 428 kts | 341° |
| 2026-05-01 12:15 | -20.33428 | -47.64685 | 37203 ft | 428 kts | 341° |
| 2026-05-01 12:15 | -20.27701 | -47.66439 | 37204 ft | 428 kts | 342° |
| 2026-05-01 12:16 | -20.21944 | -47.68201 | 37194 ft | 428 kts | 342° |
| 2026-05-01 12:16 | -20.16223 | -47.69950 | 37188 ft | 427 kts | 342° |
| 2026-05-01 12:17 | -20.10521 | -47.71692 | 37191 ft | 428 kts | 342° |
| 2026-05-01 12:17 | -20.04778 | -47.73444 | 37183 ft | 428 kts | 342° |
| 2026-05-01 12:18 | -19.99058 | -47.75190 | 37188 ft | 429 kts | 342° |
| 2026-05-01 12:18 | -19.93285 | -47.76949 | 37184 ft | 429 kts | 342° |
| 2026-05-01 12:19 | -19.87572 | -47.78689 | 37191 ft | 429 kts | 342° |
| 2026-05-01 12:19 | -19.81823 | -47.80439 | 37192 ft | 428 kts | 342° |
| 2026-05-01 12:20 | -19.76072 | -47.82187 | 37193 ft | 428 kts | 342° |
| 2026-05-01 12:20 | -19.70363 | -47.83922 | 37196 ft | 429 kts | 342° |
| 2026-05-01 12:21 | -19.64630 | -47.85663 | 37200 ft | 429 kts | 342° |
| 2026-05-01 12:21 | -19.58864 | -47.87412 | 37200 ft | 429 kts | 342° |
| 2026-05-01 12:22 | -19.53119 | -47.89155 | 37209 ft | 429 kts | 342° |
| 2026-05-01 12:22 | -19.47350 | -47.90903 | 37219 ft | 430 kts | 342° |
| 2026-05-01 12:23 | -19.41618 | -47.92639 | 37214 ft | 429 kts | 342° |
| 2026-05-01 12:23 | -19.35862 | -47.94381 | 37220 ft | 429 kts | 342° |
| 2026-05-01 12:24 | -19.30115 | -47.96119 | 37219 ft | 429 kts | 342° |
| 2026-05-01 12:24 | -19.24330 | -47.97865 | 37216 ft | 429 kts | 342° |
| 2026-05-01 12:25 | -19.15694 | -48.00473 | 37214 ft | 430 kts | 342° |
| 2026-05-01 12:26 | -19.09943 | -48.02209 | 37211 ft | 430 kts | 342° |
| 2026-05-01 12:26 | -19.01325 | -48.04808 | 37200 ft | 429 kts | 342° |
| 2026-05-01 12:27 | -18.92680 | -48.07413 | 37197 ft | 430 kts | 342° |
| 2026-05-01 12:28 | -18.84172 | -48.10480 | 37192 ft | 430 kts | 338° |
| 2026-05-01 12:29 | -18.75730 | -48.13703 | 37191 ft | 430 kts | 338° |
| 2026-05-01 12:29 | -18.67298 | -48.16921 | 37193 ft | 430 kts | 338° |
| 2026-05-01 12:30 | -18.58847 | -48.20142 | 37190 ft | 430 kts | 339° |
| 2026-05-01 12:31 | -18.53194 | -48.22294 | 37194 ft | 430 kts | 339° |
| 2026-05-01 12:31 | -18.47546 | -48.24444 | 37197 ft | 431 kts | 339° |
| 2026-05-01 12:32 | -18.41907 | -48.26589 | 37196 ft | 431 kts | 339° |
| 2026-05-01 12:32 | -18.33453 | -48.29802 | 37185 ft | 430 kts | 339° |
| 2026-05-01 12:33 | -18.30641 | -48.30872 | 36741 ft | 433 kts | 339° |
| 2026-05-01 12:33 | -18.27810 | -48.31948 | 36063 ft | 433 kts | 339° |
| 2026-05-01 12:33 | -18.24973 | -48.33025 | 35383 ft | 433 kts | 339° |
| 2026-05-01 12:33 | -18.22134 | -48.34102 | 34702 ft | 433 kts | 339° |
| 2026-05-01 12:34 | -18.19309 | -48.35171 | 34039 ft | 433 kts | 339° |
| 2026-05-01 12:34 | -18.16476 | -48.36242 | 33380 ft | 432 kts | 339° |
| 2026-05-01 12:34 | -18.13624 | -48.37322 | 32707 ft | 432 kts | 339° |
| 2026-05-01 12:34 | -18.10788 | -48.38397 | 32085 ft | 433 kts | 339° |
| 2026-05-01 12:35 | -18.07964 | -48.39468 | 31424 ft | 434 kts | 339° |
| 2026-05-01 12:35 | -18.05128 | -48.40544 | 30735 ft | 436 kts | 340° |
| 2026-05-01 12:35 | -18.02271 | -48.41627 | 30028 ft | 438 kts | 340° |
| 2026-05-01 12:35 | -17.99404 | -48.42714 | 29313 ft | 440 kts | 340° |
| 2026-05-01 12:36 | -17.96517 | -48.43808 | 28573 ft | 442 kts | 340° |
| 2026-05-01 12:36 | -17.93622 | -48.44902 | 27816 ft | 444 kts | 340° |
| 2026-05-01 12:36 | -17.90682 | -48.46013 | 27103 ft | 444 kts | 340° |
| 2026-05-01 12:36 | -17.87788 | -48.47107 | 26593 ft | 440 kts | 340° |
| 2026-05-01 12:37 | -17.84942 | -48.48184 | 26061 ft | 437 kts | 340° |
| 2026-05-01 12:37 | -17.82097 | -48.49260 | 25539 ft | 433 kts | 341° |
| 2026-05-01 12:37 | -17.79238 | -48.50341 | 25017 ft | 430 kts | 341° |
| 2026-05-01 12:37 | -17.76435 | -48.51401 | 24504 ft | 426 kts | 341° |
| 2026-05-01 12:38 | -17.73668 | -48.52446 | 23997 ft | 423 kts | 341° |
| 2026-05-01 12:38 | -17.70937 | -48.53538 | 23493 ft | 421 kts | 338° |
| 2026-05-01 12:38 | -17.68268 | -48.54768 | 22996 ft | 418 kts | 336° |
| 2026-05-01 12:38 | -17.65599 | -48.56044 | 22484 ft | 416 kts | 336° |
| 2026-05-01 12:39 | -17.63001 | -48.57292 | 21984 ft | 414 kts | 336° |
| 2026-05-01 12:39 | -17.60390 | -48.58546 | 21481 ft | 411 kts | 336° |
| 2026-05-01 12:39 | -17.57798 | -48.59788 | 20978 ft | 409 kts | 336° |
| 2026-05-01 12:39 | -17.55205 | -48.61031 | 20471 ft | 407 kts | 336° |
| 2026-05-01 12:40 | -17.52612 | -48.62274 | 19959 ft | 405 kts | 336° |
| 2026-05-01 12:40 | -17.50061 | -48.63496 | 19452 ft | 403 kts | 336° |
| 2026-05-01 12:40 | -17.47518 | -48.64712 | 18949 ft | 401 kts | 336° |
| 2026-05-01 12:40 | -17.44995 | -48.65916 | 18447 ft | 399 kts | 337° |
| 2026-05-01 12:41 | -17.42480 | -48.67117 | 17942 ft | 397 kts | 337° |
| 2026-05-01 12:41 | -17.39975 | -48.68311 | 17440 ft | 395 kts | 337° |
| 2026-05-01 12:41 | -17.37459 | -48.69512 | 16930 ft | 393 kts | 337° |
| 2026-05-01 12:41 | -17.34978 | -48.70697 | 16423 ft | 391 kts | 337° |
| 2026-05-01 12:42 | -17.32515 | -48.71873 | 15917 ft | 389 kts | 337° |
| 2026-05-01 12:42 | -17.30031 | -48.73059 | 15408 ft | 387 kts | 338° |
| 2026-05-01 12:42 | -17.27599 | -48.74220 | 14904 ft | 385 kts | 338° |
| 2026-05-01 12:42 | -17.25171 | -48.75379 | 14398 ft | 383 kts | 338° |
| 2026-05-01 12:43 | -17.22752 | -48.76533 | 13889 ft | 381 kts | 338° |
| 2026-05-01 12:43 | -17.20338 | -48.77684 | 13447 ft | 376 kts | 338° |
| 2026-05-01 12:43 | -17.18000 | -48.78802 | 12957 ft | 359 kts | 338° |
| 2026-05-01 12:43 | -17.15779 | -48.79862 | 12470 ft | 342 kts | 339° |
| 2026-05-01 12:44 | -17.13664 | -48.80872 | 12021 ft | 328 kts | 339° |
| 2026-05-01 12:44 | -17.11603 | -48.81853 | 11590 ft | 322 kts | 339° |
| 2026-05-01 12:44 | -17.07681 | -48.83718 | 10737 ft | 296 kts | 339° |
| 2026-05-01 12:45 | -17.03938 | -48.85493 | 10423 ft | 294 kts | 340° |
| 2026-05-01 12:45 | -17.02063 | -48.86381 | 10346 ft | 295 kts | 340° |
| 2026-05-01 12:45 | -17.00179 | -48.87274 | 10273 ft | 295 kts | 339° |
| 2026-05-01 12:46 | -16.98318 | -48.88157 | 10195 ft | 295 kts | 339° |
| 2026-05-01 12:46 | -16.96455 | -48.89040 | 9904 ft | 293 kts | 339° |
| 2026-05-01 12:46 | -16.94601 | -48.89920 | 9595 ft | 291 kts | 339° |
| 2026-05-01 12:46 | -16.92761 | -48.90795 | 9286 ft | 289 kts | 339° |
| 2026-05-01 12:47 | -16.90930 | -48.91665 | 8972 ft | 287 kts | 339° |
| 2026-05-01 12:47 | -16.89117 | -48.92527 | 8644 ft | 285 kts | 339° |
| 2026-05-01 12:47 | -16.87325 | -48.93379 | 8207 ft | 281 kts | 340° |
| 2026-05-01 12:47 | -16.85523 | -48.94235 | 7772 ft | 282 kts | 340° |
| 2026-05-01 12:48 | -16.83744 | -48.95077 | 7472 ft | 277 kts | 340° |
| 2026-05-01 12:48 | -16.82028 | -48.95894 | 7431 ft | 262 kts | 340° |
| 2026-05-01 12:48 | -16.80399 | -48.96670 | 7389 ft | 249 kts | 340° |
| 2026-05-01 12:48 | -16.78857 | -48.97402 | 7339 ft | 236 kts | 341° |
| 2026-05-01 12:49 | -16.77399 | -48.98096 | 7252 ft | 224 kts | 339° |
| 2026-05-01 12:49 | -16.76155 | -48.99003 | 7178 ft | 214 kts | 317° |
| 2026-05-01 12:49 | -16.75295 | -49.00271 | 7010 ft | 217 kts | 305° |
| 2026-05-01 12:49 | -16.74552 | -49.01678 | 6566 ft | 222 kts | 302° |
| 2026-05-01 12:50 | -16.73839 | -49.03072 | 6269 ft | 218 kts | 303° |
| 2026-05-01 12:50 | -16.73105 | -49.04453 | 5993 ft | 214 kts | 304° |
| 2026-05-01 12:50 | -16.72370 | -49.05783 | 5713 ft | 210 kts | 304° |
| 2026-05-01 12:50 | -16.71633 | -49.07091 | 5441 ft | 206 kts | 304° |
| 2026-05-01 12:51 | -16.70923 | -49.08345 | 5164 ft | 198 kts | 304° |
| 2026-05-01 12:51 | -16.70250 | -49.09541 | 4920 ft | 185 kts | 303° |
| 2026-05-01 12:51 | -16.68977 | -49.11798 | 4443 ft | 178 kts | 303° |
| 2026-05-01 12:52 | -16.68356 | -49.12902 | 4205 ft | 177 kts | 302° |
| 2026-05-01 12:52 | -16.67178 | -49.15007 | 3738 ft | 154 kts | 302° |
| 2026-05-01 12:52 | -16.66645 | -49.15957 | 3564 ft | 150 kts | 302° |
| 2026-05-01 12:53 | -16.65600 | -49.17817 | 3168 ft | 147 kts | 300° |
| 2026-05-01 12:53 | -16.65086 | -49.18735 | 2970 ft | 145 kts | 300° |
| 2026-05-01 12:53 | -16.64580 | -49.19637 | 2776 ft | 144 kts | 300° |
| 2026-05-01 12:54 | -16.64078 | -49.20535 | 2602 ft | 143 kts | 299° |
| 2026-05-01 12:54 | -16.63196 | -49.22123 | 2457 ft | 68 kts | 300° |
| 2026-05-01 12:54 | -16.63022 | -49.22419 | 2463 ft | 42 kts | 300° |
| 2026-05-01 12:55 | -16.62842 | -49.22612 | 2466 ft | 2 kts | 327° |
| 2026-05-01 12:55 | -16.62794 | -49.22641 | 2466 ft | 13 kts | 339° |
| 2026-05-01 12:55 | -16.62751 | -49.22562 | 2464 ft | 19 kts | 119° |
| 2026-05-01 12:56 | -16.62821 | -49.22439 | 2464 ft | 19 kts | 121° |
| 2026-05-01 12:56 | -16.62890 | -49.22317 | 2463 ft | 19 kts | 120° |
| 2026-05-01 12:56 | -16.62960 | -49.22192 | 2462 ft | 20 kts | 120° |
| 2026-05-01 12:56 | -16.62992 | -49.22057 | 2463 ft | 18 kts | 90° |
| 2026-05-01 12:57 | -16.62972 | -49.21932 | 2466 ft | 16 kts | 78° |
| 2026-05-01 12:57 | -16.62930 | -49.21731 | 2476 ft | 12 kts | 78° |
| 2026-05-01 12:57 | -16.62923 | -49.21641 | 2480 ft | 12 kts | 115° |
| 2026-05-01 12:58 | -16.62997 | -49.21591 | 2481 ft | 8 kts | 117° |
| 2026-05-01 12:58 | -16.62986 | -49.21552 | 2483 ft | 3 kts | 64° |
| 2026-05-01 12:58 | -16.62978 | -49.21537 | 2484 ft | 1 kts | 63° |
| 2026-05-01 12:59 | -16.62972 | -49.21523 | 2485 ft | 0 kts | 63° |